W. O. Watson — WDE2805 — position and weather

sailwx.info

Track history (hours):
 
Tides and Currents Weather Stations Pressure Air Temp Water Temp Dewpoint Dewpoint Depression Visibility Wind Speed Wind Dir Waves Ship Positions

W. O. Watson

Owner: Martin Operating Partnership,LP, Vidor, TX. More information available from US FCC via Universal Licensing System and Coast Guard Vessel Documentation Center.

Last reported at 2014-Dec-19 01:33 UTC. Time now 2014-Dec-20 08:44 UTC.
Position N 29°33' W 094°54'.

Length 32 m; draft 2.8 m.

MMSI: 367329860.

Date/timePositionNaut miles runAvg speedWind from/ knotsBaromVisibWave heightAir tempDewpointWater temp
2014-Dec-19 01:33N 29°33' W 094°54'8 7.7
2014-Dec-19 00:33N 29°39' W 094°58'2 1.7
2014-Dec-18 23:33N 29°41' W 094°59'0 0.0
2014-Dec-18 22:33N 29°41' W 094°59'0 0.2
2014-Dec-18 21:31N 29°41' W 094°59'3 3.1
2014-Dec-18 20:33N 29°43' W 095°01'4 4.1
2014-Dec-18 19:33N 29°46' W 095°05'1 1.0
2014-Dec-18 18:14N 29°47' W 095°04'0 0.0
2014-Dec-18 16:31N 29°47' W 095°04'2 2.4
2014-Dec-18 15:33N 29°45' W 095°06'0 0.4
2014-Dec-18 14:33N 29°46' W 095°06'0 0.0
2014-Dec-18 13:32N 29°46' W 095°06'0 0.3
2014-Dec-18 12:08N 29°45' W 095°06'1 0.1
2014-Dec-18 01:32N 29°46' W 095°06'0 0.0
2014-Dec-17 22:29N 29°46' W 095°06'0 0.0
2014-Dec-17 20:08N 29°46' W 095°06'0 0.0
2014-Dec-17 19:30N 29°46' W 095°06'0 0.0
2014-Dec-17 18:32N 29°46' W 095°06'0 0.0
2014-Dec-17 15:33N 29°46' W 095°06'0 0.0
2014-Dec-17 14:33N 29°46' W 095°06'1 0.2
2014-Dec-17 09:33N 29°46' W 095°05'5 4.8
2014-Dec-17 08:33N 29°42' W 095°01'3 2.6
2014-Dec-17 07:33N 29°41' W 094°59'0 0.0
2014-Dec-17 06:33N 29°41' W 094°59'0 0.1
2014-Dec-17 05:05N 29°41' W 094°59'1 1.4
2014-Dec-17 04:33N 29°42' W 094°59'6 5.9
2014-Dec-17 03:32N 29°46' W 095°04'2 0.4
2014-Dec-16 23:28N 29°47' W 095°04'0 0.0
2014-Dec-16 22:28N 29°47' W 095°04'0 0.0
2014-Dec-16 21:25N 29°47' W 095°04'0 0.0
2014-Dec-16 20:31N 29°47' W 095°04'0 0.0
2014-Dec-16 19:33N 29°47' W 095°04'0 0.0
2014-Dec-16 18:33N 29°47' W 095°04'0 0.0
2014-Dec-16 17:33N 29°47' W 095°04'0 0.0
2014-Dec-16 16:33N 29°47' W 095°04'0 0.0
2014-Dec-16 15:33N 29°47' W 095°04'0 0.0
2014-Dec-16 14:33N 29°47' W 095°04'0 0.0
2014-Dec-16 13:33N 29°47' W 095°04'0 0.0
2014-Dec-16 12:33N 29°47' W 095°04'0 0.0
2014-Dec-16 11:33N 29°47' W 095°04'0 0.0
2014-Dec-16 10:33N 29°47' W 095°04'0 0.0
2014-Dec-16 09:33N 29°47' W 095°04'0 0.0
2014-Dec-16 08:33N 29°47' W 095°04'0 0.0
2014-Dec-16 07:33N 29°47' W 095°04'0 0.0
2014-Dec-16 06:33N 29°47' W 095°04'0 0.0
2014-Dec-16 05:33N 29°47' W 095°04'0 0.0
2014-Dec-16 04:33N 29°47' W 095°04'0 0.0
2014-Dec-16 03:32N 29°47' W 095°04'0 0.0
2014-Dec-16 02:32N 29°47' W 095°04'0 0.0
2014-Dec-16 01:33N 29°47' W 095°04'0 0.0
2014-Dec-16 00:33N 29°47' W 095°04'0 0.0
2014-Dec-15 23:33N 29°47' W 095°04'0 0.0
2014-Dec-15 22:33N 29°47' W 095°04'0 0.0
2014-Dec-15 21:33N 29°47' W 095°04'0 0.0
2014-Dec-15 20:33N 29°47' W 095°04'0 0.0
2014-Dec-15 19:33N 29°47' W 095°04'0 0.0
2014-Dec-15 18:33N 29°47' W 095°04'0 0.0
2014-Dec-15 17:33N 29°47' W 095°04'0 0.1
2014-Dec-15 16:33N 29°47' W 095°04'0 0.5
2014-Dec-15 15:33N 29°47' W 095°05'3 3.2
2014-Dec-15 14:33N 29°44' W 095°03'4 3.9
2014-Dec-15 13:33N 29°41' W 094°59'4 4.4
2014-Dec-15 12:33N 29°37' W 094°57'6 5.7
2014-Dec-15 11:33N 29°32' W 094°54'6 6.0
2014-Dec-15 10:32N 29°27' W 094°51'166 3.7
2014-Dec-13 13:30N 29°46' W 091°41'5 5.2
2014-Dec-13 12:31N 29°45' W 091°35'2 1.7
2014-Dec-13 11:29N 29°44' W 091°34'3 3.6
2014-Dec-13 10:33N 29°42' W 091°30'5 4.8
2014-Dec-13 09:31N 29°40' W 091°26'4 4.1
2014-Dec-13 08:33N 29°39' W 091°21'5 5.1
2014-Dec-13 07:33N 29°39' W 091°15'4 4.3
2014-Dec-13 06:33N 29°41' W 091°11'2 1.9
2014-Dec-13 05:33N 29°41' W 091°08'3 2.8
2014-Dec-13 04:33N 29°38' W 091°06'3 3.0
2014-Dec-13 03:33N 29°37' W 091°03'3 3.3
2014-Dec-13 02:33N 29°37' W 090°59'4 4.1
2014-Dec-13 01:33N 29°34' W 090°56'5 4.6
2014-Dec-13 00:33N 29°32' W 090°52'42 3.6
2014-Dec-12 13:09N 29°46' W 090°06'12 1.8
2014-Dec-12 06:17N 29°55' W 089°57'3 0.6
2014-Dec-12 01:15N 29°57' W 090°00'6 5.3
2014-Dec-12 00:04N 29°55' W 090°07'26 2.3
2014-Dec-11 12:29N 30°03' W 090°36'0 0.0
2014-Dec-11 10:33N 30°03' W 090°36'0 0.0
2014-Dec-11 09:25N 30°03' W 090°36'0 0.0
2014-Dec-11 08:28N 30°03' W 090°36'0 0.0
2014-Dec-11 07:29N 30°03' W 090°36'0 0.0
2014-Dec-11 06:26N 30°03' W 090°36'0 0.0
2014-Dec-11 05:23N 30°03' W 090°36'0 0.0
2014-Dec-11 00:25N 30°03' W 090°36'1 0.1
2014-Dec-10 13:24N 30°02' W 090°36'0 0.0
2014-Dec-10 12:26N 30°02' W 090°36'0 0.0
2014-Dec-10 11:27N 30°02' W 090°36'0 0.0
2014-Dec-09 14:23N 30°02' W 090°36'0 0.0
2014-Dec-09 13:30N 30°02' W 090°36'0 0.0
2014-Dec-09 12:33N 30°02' W 090°36'0 0.0
2014-Dec-09 11:32N 30°02' W 090°36'0 0.0
2014-Dec-09 10:33N 30°02' W 090°36'0 0.0
2014-Dec-09 09:33N 30°02' W 090°36'0 0.0
2014-Dec-09 08:33N 30°02' W 090°36'0 0.0
2014-Dec-09 07:33N 30°02' W 090°36'0 0.0
2014-Dec-09 06:33N 30°02' W 090°36'0 0.0
2014-Dec-09 05:23N 30°02' W 090°36'0 0.0
2014-Dec-09 04:31N 30°02' W 090°36'0 0.0
2014-Dec-09 03:14N 30°02' W 090°36'0 0.0
2014-Dec-09 02:32N 30°02' W 090°36'  
Track history (hours):
 
Tides and Currents Weather Stations Pressure Air Temp Water Temp Dewpoint Dewpoint Depression Visibility Wind Speed Wind Dir Waves Ship Positions

W. O. Watson

Owner: Martin Operating Partnership,LP, Vidor, TX. More information available from US FCC via Universal Licensing System and Coast Guard Vessel Documentation Center.

Last reported at 2014-Dec-19 01:33 UTC. Time now 2014-Dec-20 08:44 UTC.
Position N 29°33' W 094°54'.

Length 32 m; draft 2.8 m.

MMSI: 367329860.

Date/timePositionNaut miles runAvg speedWind from/ knotsBaromVisibWave heightAir tempDewpointWater temp
2014-Dec-19 01:33N 29°33' W 094°54'8 7.7
2014-Dec-19 00:33N 29°39' W 094°58'2 1.7
2014-Dec-18 23:33N 29°41' W 094°59'0 0.0
2014-Dec-18 22:33N 29°41' W 094°59'0 0.2
2014-Dec-18 21:31N 29°41' W 094°59'3 3.1
2014-Dec-18 20:33N 29°43' W 095°01'4 4.1
2014-Dec-18 19:33N 29°46' W 095°05'1 1.0
2014-Dec-18 18:14N 29°47' W 095°04'0 0.0
2014-Dec-18 16:31N 29°47' W 095°04'2 2.4
2014-Dec-18 15:33N 29°45' W 095°06'0 0.4
2014-Dec-18 14:33N 29°46' W 095°06'0 0.0
2014-Dec-18 13:32N 29°46' W 095°06'0 0.3
2014-Dec-18 12:08N 29°45' W 095°06'1 0.1
2014-Dec-18 01:32N 29°46' W 095°06'0 0.0
2014-Dec-17 22:29N 29°46' W 095°06'0 0.0
2014-Dec-17 20:08N 29°46' W 095°06'0 0.0
2014-Dec-17 19:30N 29°46' W 095°06'0 0.0
2014-Dec-17 18:32N 29°46' W 095°06'0 0.0
2014-Dec-17 15:33N 29°46' W 095°06'0 0.0
2014-Dec-17 14:33N 29°46' W 095°06'1 0.2
2014-Dec-17 09:33N 29°46' W 095°05'5 4.8
2014-Dec-17 08:33N 29°42' W 095°01'3 2.6
2014-Dec-17 07:33N 29°41' W 094°59'0 0.0
2014-Dec-17 06:33N 29°41' W 094°59'0 0.1
2014-Dec-17 05:05N 29°41' W 094°59'1 1.4
2014-Dec-17 04:33N 29°42' W 094°59'6 5.9
2014-Dec-17 03:32N 29°46' W 095°04'2 0.4
2014-Dec-16 23:28N 29°47' W 095°04'0 0.0
2014-Dec-16 22:28N 29°47' W 095°04'0 0.0
2014-Dec-16 21:25N 29°47' W 095°04'0 0.0
2014-Dec-16 20:31N 29°47' W 095°04'0 0.0
2014-Dec-16 19:33N 29°47' W 095°04'0 0.0
2014-Dec-16 18:33N 29°47' W 095°04'0 0.0
2014-Dec-16 17:33N 29°47' W 095°04'0 0.0
2014-Dec-16 16:33N 29°47' W 095°04'0 0.0
2014-Dec-16 15:33N 29°47' W 095°04'0 0.0
2014-Dec-16 14:33N 29°47' W 095°04'0 0.0
2014-Dec-16 13:33N 29°47' W 095°04'0 0.0
2014-Dec-16 12:33N 29°47' W 095°04'0 0.0
2014-Dec-16 11:33N 29°47' W 095°04'0 0.0
2014-Dec-16 10:33N 29°47' W 095°04'0 0.0
2014-Dec-16 09:33N 29°47' W 095°04'0 0.0
2014-Dec-16 08:33N 29°47' W 095°04'0 0.0
2014-Dec-16 07:33N 29°47' W 095°04'0 0.0
2014-Dec-16 06:33N 29°47' W 095°04'0 0.0
2014-Dec-16 05:33N 29°47' W 095°04'0 0.0
2014-Dec-16 04:33N 29°47' W 095°04'0 0.0
2014-Dec-16 03:32N 29°47' W 095°04'0 0.0
2014-Dec-16 02:32N 29°47' W 095°04'0 0.0
2014-Dec-16 01:33N 29°47' W 095°04'0 0.0
2014-Dec-16 00:33N 29°47' W 095°04'0 0.0
2014-Dec-15 23:33N 29°47' W 095°04'0 0.0
2014-Dec-15 22:33N 29°47' W 095°04'0 0.0
2014-Dec-15 21:33N 29°47' W 095°04'0 0.0
2014-Dec-15 20:33N 29°47' W 095°04'0 0.0
2014-Dec-15 19:33N 29°47' W 095°04'0 0.0
2014-Dec-15 18:33N 29°47' W 095°04'0 0.0
2014-Dec-15 17:33N 29°47' W 095°04'0 0.1
2014-Dec-15 16:33N 29°47' W 095°04'0 0.5
2014-Dec-15 15:33N 29°47' W 095°05'3 3.2
2014-Dec-15 14:33N 29°44' W 095°03'4 3.9
2014-Dec-15 13:33N 29°41' W 094°59'4 4.4
2014-Dec-15 12:33N 29°37' W 094°57'6 5.7
2014-Dec-15 11:33N 29°32' W 094°54'6 6.0
2014-Dec-15 10:32N 29°27' W 094°51'166 3.7
2014-Dec-13 13:30N 29°46' W 091°41'5 5.2
2014-Dec-13 12:31N 29°45' W 091°35'2 1.7
2014-Dec-13 11:29N 29°44' W 091°34'3 3.6
2014-Dec-13 10:33N 29°42' W 091°30'5 4.8
2014-Dec-13 09:31N 29°40' W 091°26'4 4.1
2014-Dec-13 08:33N 29°39' W 091°21'5 5.1
2014-Dec-13 07:33N 29°39' W 091°15'4 4.3
2014-Dec-13 06:33N 29°41' W 091°11'2 1.9
2014-Dec-13 05:33N 29°41' W 091°08'3 2.8
2014-Dec-13 04:33N 29°38' W 091°06'3 3.0
2014-Dec-13 03:33N 29°37' W 091°03'3 3.3
2014-Dec-13 02:33N 29°37' W 090°59'4 4.1
2014-Dec-13 01:33N 29°34' W 090°56'5 4.6
2014-Dec-13 00:33N 29°32' W 090°52'42 3.6
2014-Dec-12 13:09N 29°46' W 090°06'12 1.8
2014-Dec-12 06:17N 29°55' W 089°57'3 0.6
2014-Dec-12 01:15N 29°57' W 090°00'6 5.3
2014-Dec-12 00:04N 29°55' W 090°07'26 2.3
2014-Dec-11 12:29N 30°03' W 090°36'0 0.0
2014-Dec-11 10:33N 30°03' W 090°36'0 0.0
2014-Dec-11 09:25N 30°03' W 090°36'0 0.0
2014-Dec-11 08:28N 30°03' W 090°36'0 0.0
2014-Dec-11 07:29N 30°03' W 090°36'0 0.0
2014-Dec-11 06:26N 30°03' W 090°36'0 0.0
2014-Dec-11 05:23N 30°03' W 090°36'0 0.0
2014-Dec-11 00:25N 30°03' W 090°36'1 0.1
2014-Dec-10 13:24N 30°02' W 090°36'0 0.0
2014-Dec-10 12:26N 30°02' W 090°36'0 0.0
2014-Dec-10 11:27N 30°02' W 090°36'0 0.0
2014-Dec-09 14:23N 30°02' W 090°36'0 0.0
2014-Dec-09 13:30N 30°02' W 090°36'0 0.0
2014-Dec-09 12:33N 30°02' W 090°36'0 0.0
2014-Dec-09 11:32N 30°02' W 090°36'0 0.0
2014-Dec-09 10:33N 30°02' W 090°36'0 0.0
2014-Dec-09 09:33N 30°02' W 090°36'0 0.0
2014-Dec-09 08:33N 30°02' W 090°36'0 0.0
2014-Dec-09 07:33N 30°02' W 090°36'0 0.0
2014-Dec-09 06:33N 30°02' W 090°36'0 0.0
2014-Dec-09 05:23N 30°02' W 090°36'0 0.0
2014-Dec-09 04:31N 30°02' W 090°36'0 0.0
2014-Dec-09 03:14N 30°02' W 090°36'0 0.0
2014-Dec-09 02:32N 30°02' W 090°36'  

Dump ship's entire track history